createdAt,value
2022-08-03T00:00:36.581Z,23.95
2022-08-03T00:03:04.990Z,23.94
2022-08-03T00:05:34.024Z,23.90
2022-08-03T00:08:03.674Z,23.86
2022-08-03T00:10:32.795Z,23.84
2022-08-03T00:13:01.097Z,23.82
2022-08-03T00:15:29.403Z,23.79
2022-08-03T00:17:57.684Z,23.77
2022-08-03T00:20:26.763Z,23.75
2022-08-03T00:22:55.070Z,23.70
2022-08-03T00:25:24.758Z,23.66
2022-08-03T00:27:53.054Z,23.64
2022-08-03T00:30:21.535Z,23.61
2022-08-03T00:32:49.928Z,23.59
2022-08-03T00:35:33.451Z,23.56
2022-08-03T00:38:05.614Z,23.50
2022-08-03T00:40:35.975Z,23.47
2022-08-03T00:43:08.140Z,23.43
2022-08-03T00:45:38.678Z,23.39
2022-08-03T00:48:29.723Z,23.37
2022-08-03T00:50:58.278Z,23.31
2022-08-03T00:53:27.007Z,23.29
2022-08-03T00:55:56.742Z,23.25
2022-08-03T00:58:25.321Z,23.23
2022-08-03T01:00:53.835Z,23.21
2022-08-03T01:03:22.203Z,23.18
2022-08-03T01:05:57.705Z,23.14
2022-08-03T01:08:36.855Z,23.09
2022-08-03T01:11:25.542Z,23.02
2022-08-03T01:14:18.962Z,22.99
2022-08-03T01:16:57.838Z,22.96
2022-08-03T01:19:44.964Z,22.94
2022-08-03T01:22:38.229Z,22.87
2022-08-03T01:25:16.292Z,22.85
2022-08-03T01:28:06.043Z,22.79
2022-08-03T01:30:38.944Z,22.78
2022-08-03T01:33:19.550Z,22.75
2022-08-03T01:35:54.641Z,22.73
2022-08-03T01:38:27.473Z,22.70
2022-08-03T01:40:57.764Z,22.69
2022-08-03T01:43:58.919Z,22.64
2022-08-03T01:46:21.683Z,22.61
2022-08-03T01:48:50.841Z,22.57
2022-08-03T01:51:22.265Z,22.57
2022-08-03T01:53:54.822Z,22.55
2022-08-03T01:56:26.231Z,22.52
2022-08-03T01:58:56.642Z,22.50
2022-08-03T02:02:29.751Z,22.48
2022-08-03T02:04:19.718Z,22.45
2022-08-03T02:07:02.520Z,22.42
2022-08-03T02:09:32.302Z,22.39
2022-08-03T02:12:01.908Z,22.37
2022-08-03T02:14:31.145Z,22.35
2022-08-03T02:17:01.964Z,22.32
2022-08-03T02:19:35.638Z,22.29
2022-08-03T02:22:10.775Z,22.28
2022-08-03T02:24:39.672Z,22.25
2022-08-03T02:27:16.246Z,22.24
2022-08-03T02:29:48.058Z,22.20
2022-08-03T02:32:22.451Z,22.16
2022-08-03T02:34:54.487Z,22.14
2022-08-03T02:37:27.995Z,22.13
2022-08-03T02:40:02.892Z,22.09
2022-08-03T02:42:33.533Z,22.08
2022-08-03T02:45:06.332Z,22.06
2022-08-03T02:47:53.583Z,22.04
2022-08-03T02:50:25.765Z,22.00
2022-08-03T02:52:56.201Z,21.97
2022-08-03T02:55:27.550Z,21.96
2022-08-03T02:57:57.428Z,21.92
2022-08-03T03:00:31.055Z,21.92
2022-08-03T03:03:03.210Z,21.88
2022-08-03T03:05:55.516Z,21.87
2022-08-03T03:08:26.115Z,21.82
2022-08-03T03:10:57.076Z,21.79
2022-08-03T03:13:26.329Z,21.77
2022-08-03T03:15:55.850Z,21.76
2022-08-03T03:18:26.542Z,21.74
2022-08-03T03:20:56.647Z,21.72
2022-08-03T03:23:26.648Z,21.69
2022-08-03T03:25:56.095Z,21.68
2022-08-03T03:28:25.597Z,21.65
2022-08-03T03:30:54.244Z,21.62
2022-08-03T03:33:24.689Z,21.59
2022-08-03T03:35:53.497Z,21.57
2022-08-03T03:38:22.148Z,21.56
2022-08-03T03:40:50.975Z,21.53
2022-08-03T03:43:19.688Z,21.51
2022-08-03T03:45:49.341Z,21.50
2022-08-03T03:48:17.724Z,21.49
2022-08-03T03:50:47.961Z,21.48
2022-08-03T03:53:16.913Z,21.46
2022-08-03T03:55:59.456Z,21.44
2022-08-03T03:58:33.078Z,21.40
2022-08-03T04:01:02.092Z,21.39
2022-08-03T04:03:30.558Z,21.37
2022-08-03T04:06:18.354Z,21.36
2022-08-03T04:09:04.474Z,21.34
2022-08-03T04:11:38.872Z,21.29
2022-08-03T04:14:12.355Z,21.28
2022-08-03T04:16:48.296Z,21.28
2022-08-03T04:19:23.464Z,21.27
2022-08-03T04:21:58.502Z,21.25
2022-08-03T04:24:29.895Z,21.27
2022-08-03T04:27:00.777Z,21.23
2022-08-03T04:29:32.572Z,21.26
2022-08-03T04:32:03.280Z,21.27
2022-08-03T04:34:32.633Z,21.27
2022-08-03T04:37:07.171Z,21.24
2022-08-03T04:39:38.641Z,21.28
2022-08-03T04:42:10.287Z,21.30
2022-08-03T04:44:41.868Z,21.31
2022-08-03T04:47:10.414Z,21.33
2022-08-03T04:49:39.898Z,21.35
2022-08-03T04:52:11.036Z,21.39
2022-08-03T04:54:48.803Z,21.41
2022-08-03T04:57:22.370Z,21.44
2022-08-03T04:59:59.580Z,21.46
2022-08-03T05:02:30.966Z,21.48
2022-08-03T05:04:59.703Z,21.51
2022-08-03T05:07:35.688Z,21.53
2022-08-03T05:10:16.132Z,21.55
2022-08-03T05:12:46.705Z,21.60
2022-08-03T05:15:15.860Z,21.62
2022-08-03T05:17:44.513Z,21.66
2022-08-03T05:20:13.735Z,21.69
2022-08-03T05:22:46.320Z,21.72
2022-08-03T05:25:17.761Z,21.75
2022-08-03T05:27:48.294Z,21.80
2022-08-03T05:30:31.556Z,21.83
2022-08-03T05:33:02.596Z,21.87
2022-08-03T05:36:01.622Z,21.90
2022-08-03T05:38:28.460Z,21.97
2022-08-03T05:41:20.271Z,22.04
2022-08-03T05:43:46.892Z,22.11
2022-08-03T05:46:15.405Z,22.20
2022-08-03T05:48:44.047Z,22.28
2022-08-03T05:51:12.534Z,22.37
2022-08-03T05:53:43.887Z,22.44
2022-08-03T05:56:15.254Z,22.53
2022-08-03T05:58:46.283Z,22.60
2022-08-03T06:01:15.003Z,22.68
2022-08-03T06:03:43.512Z,22.77
2022-08-03T06:06:12.453Z,22.86
2022-08-03T06:08:42.902Z,22.97
2022-08-03T06:11:11.340Z,23.08
2022-08-03T06:13:40.337Z,23.18
2022-08-03T06:16:08.785Z,23.33
2022-08-03T06:18:37.964Z,23.43
2022-08-03T06:21:14.048Z,23.58
2022-08-03T06:23:54.141Z,23.69
2022-08-03T06:26:25.894Z,23.81
2022-08-03T06:28:54.965Z,23.94
2022-08-03T06:31:26.223Z,24.07
2022-08-03T06:34:33.153Z,24.23
2022-08-03T06:36:58.574Z,24.40
2022-08-03T06:39:31.380Z,24.53
2022-08-03T06:41:59.675Z,24.69
2022-08-03T06:44:28.170Z,24.84
2022-08-03T06:46:56.499Z,24.98
2022-08-03T06:49:24.873Z,25.14
2022-08-03T06:52:05.293Z,25.28
2022-08-03T06:54:36.914Z,25.39
2022-08-03T06:57:08.110Z,25.51
2022-08-03T07:00:07.495Z,25.62
2022-08-03T07:02:24.684Z,25.71
2022-08-03T07:04:57.195Z,25.85
2022-08-03T07:07:25.847Z,25.93
2022-08-03T07:09:57.689Z,26.07
2022-08-03T07:12:27.393Z,26.20
2022-08-03T07:15:00.383Z,26.35
2022-08-03T07:17:31.072Z,26.48
2022-08-03T07:19:59.706Z,26.63
2022-08-03T07:22:28.608Z,26.78
2022-08-03T07:24:58.456Z,26.95
2022-08-03T07:27:28.643Z,27.11
2022-08-03T07:29:57.732Z,27.26
2022-08-03T07:32:28.476Z,27.43
2022-08-03T07:35:00.575Z,27.56
2022-08-03T07:37:29.988Z,27.72
2022-08-03T07:39:59.985Z,27.88
2022-08-03T07:42:28.870Z,28.05
2022-08-03T07:44:58.246Z,28.21
2022-08-03T07:47:35.546Z,28.34
2022-08-03T07:50:06.368Z,28.51
2022-08-03T07:52:50.230Z,28.64
2022-08-03T07:55:22.253Z,28.80
2022-08-03T07:58:06.055Z,28.95
2022-08-03T08:00:34.898Z,29.05
2022-08-03T08:03:03.666Z,29.21
2022-08-03T08:05:32.678Z,29.34
2022-08-03T08:08:01.424Z,29.48
2022-08-03T08:10:32.686Z,29.63
2022-08-03T08:13:01.713Z,29.76
2022-08-03T08:15:30.274Z,29.91
2022-08-03T08:18:01.467Z,30.08
2022-08-03T08:20:33.450Z,30.13
2022-08-03T08:23:09.567Z,30.25
2022-08-03T08:25:56.160Z,30.37
2022-08-03T08:28:31.220Z,30.48
2022-08-03T08:31:01.854Z,30.57
2022-08-03T08:33:47.998Z,30.70
2022-08-03T08:36:18.802Z,30.87
2022-08-03T08:38:47.162Z,31.02
2022-08-03T08:41:17.522Z,31.14
2022-08-03T08:43:45.888Z,31.25
2022-08-03T08:46:23.324Z,31.40
2022-08-03T08:48:54.158Z,31.49
2022-08-03T08:51:23.874Z,31.63
2022-08-03T08:54:14.103Z,31.74
2022-08-03T08:56:44.945Z,31.89
2022-08-03T08:59:13.589Z,32.01
2022-08-03T09:01:41.904Z,32.19
2022-08-03T09:04:10.789Z,32.34
2022-08-03T09:06:39.111Z,32.48
2022-08-03T09:09:08.535Z,32.63
2022-08-03T09:11:52.551Z,32.75
2022-08-03T09:14:39.372Z,32.89
2022-08-03T09:17:17.125Z,33.02
2022-08-03T09:20:06.288Z,33.12
2022-08-03T09:22:34.579Z,33.26
2022-08-03T09:25:23.938Z,33.39
2022-08-03T09:27:53.491Z,33.54
2022-08-03T09:30:33.500Z,33.69
2022-08-03T09:33:04.435Z,33.81
2022-08-03T09:35:53.218Z,33.95
2022-08-03T09:38:24.143Z,34.09
2022-08-03T09:40:57.326Z,34.24
2022-08-03T09:43:27.964Z,34.37
2022-08-03T09:46:07.573Z,34.47
2022-08-03T09:48:37.324Z,34.60
2022-08-03T09:51:14.490Z,34.69
2022-08-03T09:54:00.345Z,34.79
2022-08-03T09:56:43.850Z,34.88
2022-08-03T09:59:13.882Z,35.00
2022-08-03T10:01:43.630Z,35.12
2022-08-03T10:04:17.069Z,35.22
2022-08-03T10:06:46.496Z,35.34
2022-08-03T10:09:17.090Z,35.46
2022-08-03T10:11:47.585Z,35.58
2022-08-03T10:14:19.907Z,35.67
2022-08-03T10:16:50.855Z,35.70
2022-08-03T10:19:19.453Z,35.74
2022-08-03T10:21:52.088Z,35.77
2022-08-03T10:24:28.134Z,35.82
2022-08-03T10:27:04.006Z,35.80
2022-08-03T10:29:38.516Z,35.88
2022-08-03T10:32:19.743Z,35.90
2022-08-03T10:34:52.294Z,35.89
2022-08-03T10:37:34.230Z,35.89
2022-08-03T10:40:04.266Z,35.92
2022-08-03T10:42:32.980Z,35.98
2022-08-03T10:45:07.742Z,35.93
2022-08-03T10:47:38.011Z,35.99
2022-08-03T10:50:07.682Z,36.03
2022-08-03T10:52:41.002Z,36.10
2022-08-03T10:55:53.880Z,36.18
2022-08-03T10:58:57.534Z,36.25
2022-08-03T11:01:58.297Z,36.33
2022-08-03T11:04:30.446Z,36.48
2022-08-03T11:07:23.071Z,36.52
2022-08-03T11:09:53.544Z,36.57
2022-08-03T11:12:30.101Z,36.58
2022-08-03T11:15:02.542Z,36.59
2022-08-03T11:17:31.215Z,36.64
2022-08-03T11:20:01.113Z,36.60
2022-08-03T11:22:54.378Z,36.49
2022-08-03T11:25:53.431Z,36.52
2022-08-03T11:28:27.049Z,36.42
2022-08-03T11:30:55.429Z,36.41
2022-08-03T11:33:33.317Z,36.38
2022-08-03T11:36:03.072Z,36.44
2022-08-03T11:38:32.781Z,36.51
2022-08-03T11:41:02.660Z,36.58
2022-08-03T11:43:46.809Z,36.66
2022-08-03T11:46:28.179Z,36.73
2022-08-03T11:49:10.541Z,36.81
2022-08-03T11:51:40.466Z,36.87
2022-08-03T11:54:11.465Z,36.93
2022-08-03T11:56:48.017Z,36.87
2022-08-03T11:59:21.553Z,36.92
2022-08-03T12:01:51.226Z,36.97
2022-08-03T12:04:19.657Z,37.01
2022-08-03T12:07:00.913Z,37.07
2022-08-03T12:09:30.578Z,37.18
2022-08-03T12:12:00.561Z,37.27
2022-08-03T12:14:51.064Z,37.27
2022-08-03T12:17:19.407Z,37.36
2022-08-03T12:19:48.338Z,37.45
2022-08-03T12:22:17.322Z,37.55
2022-08-03T12:24:47.835Z,37.60
2022-08-03T12:27:26.163Z,37.69
2022-08-03T12:29:58.177Z,37.74
2022-08-03T12:32:27.784Z,37.78
2022-08-03T12:35:00.187Z,37.82
2022-08-03T12:37:29.595Z,37.84
2022-08-03T12:40:09.445Z,37.84
2022-08-03T12:42:40.984Z,37.81
2022-08-03T12:45:24.317Z,37.78
2022-08-03T12:47:55.435Z,37.82
2022-08-03T12:50:32.205Z,37.84
2022-08-03T12:53:02.593Z,37.90
2022-08-03T12:55:57.635Z,37.96
2022-08-03T12:58:34.920Z,37.96
2022-08-03T13:01:09.995Z,37.98
2022-08-03T13:03:49.946Z,37.95
2022-08-03T13:06:20.713Z,38.01
2022-08-03T13:08:49.871Z,38.05
2022-08-03T13:11:55.611Z,38.08
2022-08-03T13:14:20.307Z,38.11
2022-08-03T13:16:49.507Z,38.10
2022-08-03T13:19:17.964Z,38.12
2022-08-03T13:22:03.447Z,38.16
2022-08-03T13:24:34.957Z,38.19
2022-08-03T13:28:01.054Z,38.23
2022-08-03T13:29:55.398Z,38.27
2022-08-03T13:32:24.388Z,38.32
2022-08-03T13:34:53.046Z,38.38
2022-08-03T13:37:21.839Z,38.40
2022-08-03T13:39:59.263Z,38.39
2022-08-03T13:42:31.628Z,38.34
2022-08-03T13:45:00.683Z,38.31
2022-08-03T13:47:29.301Z,38.26
2022-08-03T13:50:01.928Z,38.21
2022-08-03T13:52:32.802Z,38.19
2022-08-03T13:55:01.583Z,38.17
2022-08-03T13:58:04.320Z,38.18
2022-08-03T14:00:26.615Z,38.13
2022-08-03T14:03:12.863Z,38.09
2022-08-03T14:05:42.420Z,38.07
2022-08-03T14:08:11.400Z,38.09
2022-08-03T14:10:43.794Z,38.11
2022-08-03T14:13:17.429Z,38.11
2022-08-03T14:15:50.195Z,38.16
2022-08-03T14:18:27.589Z,38.17
2022-08-03T14:21:03.406Z,38.17
2022-08-03T14:23:34.421Z,38.18
2022-08-03T14:26:02.812Z,38.13
2022-08-03T14:28:32.673Z,38.11
2022-08-03T14:31:01.017Z,38.11
2022-08-03T14:33:29.459Z,38.15
2022-08-03T14:35:58.405Z,38.14
2022-08-03T14:38:26.698Z,38.10
2022-08-03T14:40:55.567Z,38.09
2022-08-03T14:43:24.460Z,38.09
2022-08-03T14:45:54.801Z,38.11
2022-08-03T14:50:24.947Z,38.15
2022-08-03T14:51:13.135Z,38.13
2022-08-03T14:53:41.703Z,38.15
2022-08-03T14:56:10.868Z,38.16
2022-08-03T14:58:39.818Z,38.11
2022-08-03T15:02:05.055Z,38.11
2022-08-03T15:03:57.942Z,38.11
2022-08-03T15:06:26.203Z,38.09
2022-08-03T15:11:43.405Z,38.07
2022-08-03T15:14:13.522Z,38.01
2022-08-03T15:16:44.453Z,37.97
2022-08-03T15:20:02.841Z,37.89
2022-08-03T15:22:01.865Z,37.81
2022-08-03T15:24:30.663Z,37.80
2022-08-03T15:26:58.970Z,37.78
2022-08-03T15:30:09.131Z,37.75
2022-08-03T15:32:17.242Z,37.74
2022-08-03T15:34:50.331Z,37.75
2022-08-03T15:37:20.800Z,37.74
2022-08-03T15:39:59.558Z,37.73
2022-08-03T15:42:30.409Z,37.72
2022-08-03T15:44:59.010Z,37.72
2022-08-03T15:47:29.010Z,37.71
2022-08-03T15:49:57.432Z,37.69
2022-08-03T15:52:25.814Z,37.67
2022-08-03T15:54:54.174Z,37.65
2022-08-03T15:57:22.960Z,37.61
2022-08-03T15:59:51.890Z,37.56
2022-08-03T16:02:20.410Z,37.53
2022-08-03T16:04:50.042Z,37.51
2022-08-03T16:07:38.354Z,37.51
2022-08-03T16:10:07.861Z,37.47
2022-08-03T16:12:36.189Z,37.44
2022-08-03T16:15:04.759Z,37.41
2022-08-03T16:17:33.569Z,37.39
2022-08-03T16:20:06.211Z,37.38
2022-08-03T16:22:44.466Z,37.36
2022-08-03T16:25:16.367Z,37.35
2022-08-03T16:27:58.124Z,37.30
2022-08-03T16:30:34.290Z,37.26
2022-08-03T16:33:02.671Z,37.21
2022-08-03T16:35:32.730Z,37.20
2022-08-03T16:38:01.072Z,37.17
2022-08-03T16:40:29.661Z,37.16
2022-08-03T16:42:58.045Z,37.15
2022-08-03T16:45:26.859Z,37.09
2022-08-03T16:48:01.477Z,37.09
2022-08-03T16:50:37.182Z,37.01
2022-08-03T16:53:09.111Z,36.95
2022-08-03T16:55:48.900Z,36.87
2022-08-03T16:58:34.303Z,36.77
2022-08-03T17:01:10.972Z,36.70
2022-08-03T17:04:02.087Z,36.64
2022-08-03T17:06:37.210Z,36.54
2022-08-03T17:09:09.846Z,36.46
2022-08-03T17:11:44.121Z,36.36
2022-08-03T17:14:21.973Z,36.27
2022-08-03T17:16:53.921Z,36.17
2022-08-03T17:19:24.961Z,36.08
2022-08-03T17:22:04.527Z,35.98
2022-08-03T17:24:35.406Z,35.86
2022-08-03T17:28:41.969Z,35.73
2022-08-03T17:30:05.442Z,35.59
2022-08-03T17:32:42.344Z,35.45
2022-08-03T17:35:12.000Z,35.35
2022-08-03T17:37:58.406Z,35.22
2022-08-03T17:40:32.646Z,35.09
2022-08-03T17:44:14.246Z,34.96
2022-08-03T17:45:52.814Z,34.84
2022-08-03T17:48:25.012Z,34.72
2022-08-03T17:51:00.827Z,34.57
2022-08-03T17:53:37.002Z,34.45
2022-08-03T17:56:44.556Z,34.31
2022-08-03T17:59:15.679Z,34.17
2022-08-03T18:02:15.231Z,34.07
2022-08-03T18:05:00.916Z,33.88
2022-08-03T18:07:41.306Z,33.77
2022-08-03T18:10:15.409Z,33.66
2022-08-03T18:12:53.934Z,33.56
2022-08-03T18:15:30.461Z,33.45
2022-08-03T18:18:10.726Z,33.33
2022-08-03T18:20:42.176Z,33.24
2022-08-03T18:23:36.696Z,33.14
2022-08-03T18:26:06.747Z,33.01
2022-08-03T18:28:38.370Z,32.90
2022-08-03T18:31:07.800Z,32.80
2022-08-03T18:34:19.721Z,32.68
2022-08-03T18:36:29.914Z,32.57
2022-08-03T18:39:02.771Z,32.45
2022-08-03T18:41:35.009Z,32.33
2022-08-03T18:44:07.923Z,32.22
2022-08-03T18:46:50.967Z,32.10
2022-08-03T18:49:43.421Z,31.98
2022-08-03T18:52:18.830Z,31.86
2022-08-03T18:55:02.389Z,31.76
2022-08-03T18:57:43.874Z,31.64
2022-08-03T19:00:17.140Z,31.57
2022-08-03T19:02:58.815Z,31.44
2022-08-03T19:05:57.861Z,31.34
2022-08-03T19:08:25.984Z,31.21
2022-08-03T19:11:00.780Z,31.12
2022-08-03T19:13:50.369Z,30.99
2022-08-03T19:16:29.749Z,30.89
2022-08-03T19:19:00.624Z,30.79
2022-08-03T19:21:32.000Z,30.69
2022-08-03T19:24:07.923Z,30.61
2022-08-03T19:26:39.632Z,30.52
2022-08-03T19:32:02.615Z,30.32
2022-08-03T19:34:32.831Z,30.21
2022-08-03T19:37:02.408Z,30.12
2022-08-03T19:39:31.828Z,30.04
2022-08-03T19:42:12.198Z,29.94
2022-08-03T19:45:14.578Z,29.74
2022-08-03T19:47:49.078Z,29.71
2022-08-03T19:50:20.765Z,29.60
2022-08-03T19:52:50.850Z,29.52
2022-08-03T19:55:19.809Z,29.41
2022-08-03T19:57:49.728Z,29.36
2022-08-03T20:00:26.620Z,29.27
2022-08-03T20:02:59.636Z,29.20
2022-08-03T20:05:28.649Z,29.12
2022-08-03T20:08:14.774Z,29.03
2022-08-03T20:10:51.274Z,28.96
2022-08-03T20:13:21.234Z,28.88
2022-08-03T20:15:53.307Z,28.81
2022-08-03T20:18:22.255Z,28.74
2022-08-03T20:20:53.329Z,28.68
2022-08-03T20:26:19.331Z,28.51
2022-08-03T20:28:51.418Z,28.46
2022-08-03T20:31:32.417Z,28.37
2022-08-03T20:34:05.420Z,28.31
2022-08-03T20:36:33.828Z,28.24
2022-08-03T20:39:02.325Z,28.18
2022-08-03T20:41:36.487Z,28.13
2022-08-03T20:44:05.567Z,28.09
2022-08-03T20:46:52.948Z,28.03
2022-08-03T20:49:24.320Z,27.94
2022-08-03T20:51:53.879Z,27.90
2022-08-03T20:54:29.288Z,27.86
2022-08-03T20:56:59.383Z,27.82
2022-08-03T20:59:46.893Z,27.78
2022-08-03T21:02:30.272Z,27.72
2022-08-03T21:05:03.248Z,27.65
2022-08-03T21:08:03.991Z,27.59
2022-08-03T21:10:47.572Z,27.53
2022-08-03T21:13:02.204Z,30.42
2022-08-03T21:13:03.879Z,28.61
2022-08-03T21:13:25.096Z,27.44
2022-08-03T21:16:11.181Z,27.38
2022-08-03T21:18:48.445Z,27.28
2022-08-03T21:21:21.334Z,27.22
2022-08-03T21:23:53.875Z,27.18
2022-08-03T21:26:27.256Z,27.10
2022-08-03T21:28:57.919Z,27.03
2022-08-03T21:31:27.168Z,26.98
2022-08-03T21:33:58.702Z,26.89
2022-08-03T21:36:29.174Z,26.83
2022-08-03T21:38:58.994Z,26.79
2022-08-03T21:41:29.728Z,26.74
2022-08-03T21:43:58.791Z,26.67
2022-08-03T21:46:29.927Z,26.63
2022-08-03T21:50:05.364Z,26.57
2022-08-03T21:51:53.550Z,26.50
2022-08-03T21:54:23.825Z,26.46
2022-08-03T21:56:52.851Z,26.40
2022-08-03T21:59:22.876Z,26.34
2022-08-03T22:01:55.004Z,26.26
2022-08-03T22:04:42.671Z,26.22
2022-08-03T22:07:14.751Z,26.14
2022-08-03T22:09:51.065Z,26.08
2022-08-03T22:12:25.378Z,26.02
2022-08-03T22:15:00.065Z,25.99
2022-08-03T22:17:55.060Z,25.95
2022-08-03T22:20:23.226Z,25.89
2022-08-03T22:22:57.038Z,25.85
2022-08-03T22:25:30.529Z,25.82
2022-08-03T22:28:01.239Z,25.79
2022-08-03T22:30:31.619Z,25.74
2022-08-03T22:33:02.917Z,25.68
2022-08-03T22:35:47.344Z,25.62
2022-08-03T22:38:17.786Z,25.57
2022-08-03T22:40:48.967Z,25.52
2022-08-03T22:43:17.887Z,25.47
2022-08-03T22:46:06.846Z,25.38
2022-08-03T22:48:41.029Z,25.33
2022-08-03T22:51:11.486Z,25.29
2022-08-03T22:53:41.599Z,25.25
2022-08-03T22:56:10.174Z,25.21
2022-08-03T22:58:38.638Z,25.17
2022-08-03T23:01:09.970Z,25.12
2022-08-03T23:04:01.011Z,25.06
2022-08-03T23:06:36.730Z,25.01
2022-08-03T23:09:11.171Z,24.97
2022-08-03T23:11:45.239Z,24.94
2022-08-03T23:14:17.183Z,24.88
2022-08-03T23:16:47.934Z,24.85
2022-08-03T23:19:24.976Z,24.79
2022-08-03T23:22:02.827Z,24.73
2022-08-03T23:24:35.932Z,24.69
2022-08-03T23:27:05.382Z,24.66
2022-08-03T23:29:36.641Z,24.61
2022-08-03T23:32:07.044Z,24.58
2022-08-03T23:34:53.392Z,24.55
2022-08-03T23:37:24.166Z,24.50
2022-08-03T23:39:54.942Z,24.46
2022-08-03T23:42:24.517Z,24.42
2022-08-03T23:44:56.586Z,24.38
2022-08-03T23:47:46.757Z,24.32
2022-08-03T23:50:16.477Z,24.26
2022-08-03T23:52:58.074Z,24.21
2022-08-03T23:55:48.168Z,24.17
2022-08-03T23:58:39.474Z,24.12
